Time;durP1;ratioP1;P1;durP2;ratioP2;P2;SDS_P1;SDS_P2;PMS_P1;PMS_P2;Temp;Humidity;BMP_temperature;BMP_pressure;BME280_temperature;BME280_humidity;BME280_pressure;Samples;Min_cycle;Max_cycle;Signal;HPM_P1;HPM_P2
2023/05/16 00:00:36;;;;;;;;;;;;;;;11.94;71.99;97574.66;5091265;28;19931;-62
2023/05/16 00:03:05;;;;;;;;;;;;;;;11.87;72.09;97570.84;5089351;28;19935;-57
2023/05/16 00:05:34;;;;;;;;;;;;;;;11.96;72.57;97571.59;5120059;28;19934;-57
2023/05/16 00:08:04;;;;;;;;;;;;;;;11.91;72.28;97575.31;5092999;28;19942;-57
2023/05/16 00:10:31;;;;;;;;;;;;;;;11.88;72.47;97573.25;5077752;28;19939;-57
2023/05/16 00:13:00;;;;;;;;;;;;;;;11.86;72.58;97580.13;5098269;28;19934;-58
2023/05/16 00:15:29;;;;;;;;;;;;;;;11.82;72.79;97582.69;5087037;28;19970;-57
2023/05/16 00:17:58;;;;;;;;;;;;;;;11.76;72.61;97575.81;5083532;28;20291;-57
2023/05/16 00:20:26;;;;;;;;;;;;;;;11.72;73.00;97580.34;5087417;28;19939;-58
2023/05/16 00:22:59;;;;;;;;;;;;;;;11.74;73.17;97576.16;5080593;28;20010;-58
2023/05/16 00:25:28;;;;;;;;;;;;;;;11.70;73.33;97574.41;5083832;28;19938;-62
2023/05/16 00:27:56;;;;;;;;;;;;;;;11.69;73.27;97576.34;5090695;28;19961;-58
2023/05/16 00:30:23;;;;;;;;;;;;;;;11.62;73.12;97572.53;5092897;28;19935;-57
2023/05/16 00:32:51;;;;;;;;;;;;;;;11.60;73.37;97572.03;5083361;28;19920;-60
2023/05/16 00:35:19;;;;;;;;;;;;;;;11.69;73.61;97570.09;5078377;28;20504;-59
2023/05/16 00:37:49;;;;;;;;;;;;;;;11.71;73.43;97570.56;5088551;28;20387;-59
2023/05/16 00:40:19;;;;;;;;;;;;;;;11.75;73.16;97566.06;5110665;27;19965;-57
2023/05/16 00:42:47;;;;;;;;;;;;;;;11.78;72.77;97574.38;5080518;28;19956;-58
2023/05/16 00:45:15;;;;;;;;;;;;;;;11.73;72.81;97566.41;5104133;28;19934;-58
2023/05/16 00:47:43;;;;;;;;;;;;;;;11.71;72.93;97574.06;5069444;28;19942;-57
2023/05/16 00:50:11;;;;;;;;;;;;;;;11.70;72.76;97575.19;5092556;28;19934;-58
2023/05/16 00:52:39;;;;;;;;;;;;;;;11.68;72.82;97568.50;5084843;28;19954;-57
2023/05/16 00:55:09;;;;;;;;;;;;;;;11.63;73.09;97569.47;5090415;28;20323;-59
2023/05/16 00:57:38;;;;;;;;;;;;;;;11.62;73.55;97567.09;5093003;28;19938;-58
2023/05/16 01:00:08;;;;;;;;;;;;;;;11.59;73.51;97565.00;5094686;28;19934;-59
2023/05/16 01:02:35;;;;;;;;;;;;;;;11.55;73.79;97576.53;5080768;28;19931;-57
2023/05/16 01:05:06;;;;;;;;;;;;;;;11.53;73.81;97573.34;5081864;28;20332;-57
2023/05/16 01:07:34;;;;;;;;;;;;;;;11.58;73.71;97580.53;5091435;28;19942;-58
2023/05/16 01:10:02;;;;;;;;;;;;;;;11.53;73.85;97584.22;5083649;28;19935;-59
2023/05/16 01:12:32;;;;;;;;;;;;;;;11.53;73.67;97581.50;5128799;27;19946;-58
2023/05/16 01:15:02;;;;;;;;;;;;;;;11.53;73.70;97576.06;5086274;28;20020;-57
2023/05/16 01:17:32;;;;;;;;;;;;;;;11.48;74.13;97576.25;5078092;28;19931;-60
2023/05/16 01:20:05;;;;;;;;;;;;;;;11.44;74.29;97575.28;5099756;28;19946;-60
2023/05/16 01:22:37;;;;;;;;;;;;;;;11.46;74.20;97577.72;5074564;28;19955;-57
2023/05/16 01:25:12;;;;;;;;;;;;;;;11.47;74.09;97585.53;5083687;28;19942;-58
2023/05/16 01:27:43;;;;;;;;;;;;;;;11.50;73.92;97584.91;5075638;28;21541;-57
2023/05/16 01:30:14;;;;;;;;;;;;;;;11.45;74.29;97587.78;5091534;28;19941;-57
2023/05/16 01:32:42;;;;;;;;;;;;;;;11.45;74.42;97587.78;5076956;28;19953;-57
2023/05/16 01:35:11;;;;;;;;;;;;;;;11.43;74.39;97584.59;5126421;27;19950;-58
2023/05/16 01:37:40;;;;;;;;;;;;;;;11.44;74.13;97586.16;5090126;28;20380;-58
2023/05/16 01:40:09;;;;;;;;;;;;;;;11.47;74.16;97585.53;5100459;28;19935;-58
2023/05/16 01:42:39;;;;;;;;;;;;;;;11.52;74.28;97582.63;5098111;28;19935;-58
2023/05/16 01:45:13;;;;;;;;;;;;;;;11.47;74.06;97582.81;5085998;28;19942;-57
2023/05/16 01:47:41;;;;;;;;;;;;;;;11.49;73.89;97583.28;5074878;28;20351;-58
2023/05/16 01:50:13;;;;;;;;;;;;;;;11.47;73.87;97577.38;5102758;28;19942;-57
2023/05/16 01:52:42;;;;;;;;;;;;;;;11.43;73.98;97570.97;5093416;28;19932;-57
2023/05/16 01:55:11;;;;;;;;;;;;;;;11.41;74.09;97575.97;5100638;28;19947;-58
2023/05/16 01:57:38;;;;;;;;;;;;;;;11.44;73.75;97574.50;5129336;27;20025;-57
2023/05/16 02:00:08;;;;;;;;;;;;;;;11.39;74.15;97570.03;5127724;27;19954;-58
2023/05/16 02:02:42;;;;;;;;;;;;;;;11.36;74.22;97573.41;5089792;28;20282;-60
2023/05/16 02:05:11;;;;;;;;;;;;;;;11.28;74.40;97577.72;5087666;28;19955;-58
2023/05/16 02:07:38;;;;;;;;;;;;;;;11.25;74.80;97583.03;5076064;28;20004;-58
2023/05/16 02:10:07;;;;;;;;;;;;;;;11.17;75.07;97583.84;5121188;27;19942;-57
2023/05/16 02:12:35;;;;;;;;;;;;;;;11.14;75.61;97587.22;5102851;28;19938;-57
2023/05/16 02:15:03;;;;;;;;;;;;;;;11.11;75.68;97596.00;5112028;27;19946;-59
2023/05/16 02:17:30;;;;;;;;;;;;;;;11.04;75.89;97593.78;5084059;28;19941;-57
2023/05/16 02:20:05;;;;;;;;;;;;;;;11.02;76.33;97601.44;5090097;28;20036;-57
2023/05/16 02:22:35;;;;;;;;;;;;;;;10.99;76.76;97592.03;5078453;28;19954;-58
2023/05/16 02:25:02;;;;;;;;;;;;;;;11.02;76.58;97585.97;5080539;28;19935;-58
2023/05/16 02:27:30;;;;;;;;;;;;;;;11.08;76.55;97593.94;5077955;28;19935;-56
2023/05/16 02:29:58;;;;;;;;;;;;;;;11.11;76.44;97587.84;5077265;28;19969;-59
2023/05/16 02:32:26;;;;;;;;;;;;;;;11.11;76.31;97591.38;5069700;28;19931;-58
2023/05/16 02:34:54;;;;;;;;;;;;;;;11.09;76.36;97593.63;5076571;28;20429;-59
2023/05/16 02:37:25;;;;;;;;;;;;;;;11.11;76.25;97593.28;5079646;28;19938;-58
2023/05/16 02:39:53;;;;;;;;;;;;;;;11.14;76.55;97590.75;5087010;28;19930;-57
2023/05/16 02:42:21;;;;;;;;;;;;;;;11.22;76.08;97592.63;5074320;28;19970;-57
2023/05/16 02:44:49;;;;;;;;;;;;;;;11.20;76.26;97592.16;5089001;28;19957;-61
2023/05/16 02:47:18;;;;;;;;;;;;;;;11.35;76.10;97590.06;5068505;28;19959;-58
2023/05/16 02:49:46;;;;;;;;;;;;;;;11.33;75.89;97590.38;5086510;28;19971;-58
2023/05/16 02:52:14;;;;;;;;;;;;;;;11.31;75.89;97594.53;5072197;28;19955;-58
2023/05/16 02:54:43;;;;;;;;;;;;;;;11.25;75.96;97592.00;5090272;28;20022;-57
2023/05/16 02:57:15;;;;;;;;;;;;;;;11.26;76.34;97590.06;5089851;28;19934;-58
2023/05/16 02:59:44;;;;;;;;;;;;;;;11.32;75.76;97594.22;5064260;28;19931;-57
2023/05/16 03:02:11;;;;;;;;;;;;;;;11.34;75.41;97594.69;5090034;28;19939;-57
2023/05/16 03:04:40;;;;;;;;;;;;;;;11.34;75.27;97591.97;5073287;28;19991;-57
2023/05/16 03:07:15;;;;;;;;;;;;;;;11.39;74.86;97599.94;5064916;28;19942;-63
2023/05/16 03:09:44;;;;;;;;;;;;;;;11.39;74.68;97591.00;5076117;28;19942;-57
2023/05/16 03:12:12;;;;;;;;;;;;;;;11.30;74.91;97590.22;5090757;28;19988;-57
2023/05/16 03:14:40;;;;;;;;;;;;;;;11.24;75.13;97597.78;5102183;27;19984;-59
2023/05/16 03:17:09;;;;;;;;;;;;;;;11.21;75.11;97595.69;5089917;28;20406;-57
2023/05/16 03:19:38;;;;;;;;;;;;;;;11.25;74.97;97599.34;5070620;28;20407;-61
2023/05/16 03:22:06;;;;;;;;;;;;;;;11.21;75.39;97599.19;5093582;28;20004;-57
2023/05/16 03:24:33;;;;;;;;;;;;;;;11.22;75.60;97602.72;5082215;28;19931;-58
2023/05/16 03:27:04;;;;;;;;;;;;;;;11.18;75.92;97601.75;5078553;28;20422;-62
2023/05/16 03:29:32;;;;;;;;;;;;;;;11.16;76.15;97604.00;5078595;28;19939;-57
2023/05/16 03:32:00;;;;;;;;;;;;;;;11.14;76.50;97601.63;5079109;28;19942;-56
2023/05/16 03:34:28;;;;;;;;;;;;;;;11.13;76.19;97615.50;5080556;28;19949;-57
2023/05/16 03:36:57;;;;;;;;;;;;;;;11.07;76.51;97609.44;5077157;28;19954;-59
2023/05/16 03:39:24;;;;;;;;;;;;;;;11.01;76.64;97608.00;5090613;28;19938;-58
2023/05/16 03:41:55;;;;;;;;;;;;;;;11.01;76.64;97616.16;5090487;28;19941;-58
2023/05/16 03:44:24;;;;;;;;;;;;;;;11.13;76.66;97612.78;5106060;28;19935;-57
2023/05/16 03:46:54;;;;;;;;;;;;;;;11.20;76.33;97613.91;5081308;28;20026;-59
2023/05/16 03:49:25;;;;;;;;;;;;;;;11.27;76.30;97607.97;5090854;28;19989;-58
2023/05/16 03:51:56;;;;;;;;;;;;;;;11.28;75.63;97610.38;5096176;28;19930;-58
2023/05/16 03:54:24;;;;;;;;;;;;;;;11.27;75.46;97605.25;5092424;28;20372;-59
2023/05/16 03:56:51;;;;;;;;;;;;;;;11.32;75.59;97607.81;5091781;28;19946;-59
2023/05/16 03:59:20;;;;;;;;;;;;;;;11.26;75.38;97609.09;5089055;28;19931;-62
2023/05/16 04:01:49;;;;;;;;;;;;;;;11.22;75.82;97605.44;5091611;28;19974;-61
2023/05/16 04:04:17;;;;;;;;;;;;;;;11.20;76.20;97607.69;5077152;28;20007;-58
2023/05/16 04:06:45;;;;;;;;;;;;;;;11.26;76.40;97611.81;5080679;28;20057;-57
2023/05/16 04:09:13;;;;;;;;;;;;;;;11.27;76.29;97606.06;5070474;28;20008;-58
2023/05/16 04:11:40;;;;;;;;;;;;;;;11.35;75.84;97611.81;5083696;28;19942;-57
2023/05/16 04:14:08;;;;;;;;;;;;;;;11.37;75.98;97623.16;5089478;28;19938;-57
2023/05/16 04:16:37;;;;;;;;;;;;;;;11.36;75.79;97619.66;5082683;28;19950;-59
2023/05/16 04:19:06;;;;;;;;;;;;;;;11.38;75.77;97620.13;5080266;28;19938;-58
2023/05/16 04:21:35;;;;;;;;;;;;;;;11.39;75.64;97627.16;5090414;28;20079;-57
2023/05/16 04:24:03;;;;;;;;;;;;;;;11.41;75.85;97626.84;5075712;28;19978;-57
2023/05/16 04:26:31;;;;;;;;;;;;;;;11.41;75.81;97629.56;5090489;28;19939;-61
2023/05/16 04:28:59;;;;;;;;;;;;;;;11.35;75.87;97630.84;5088502;28;19939;-56
2023/05/16 04:31:27;;;;;;;;;;;;;;;11.32;75.92;97626.84;5083115;28;19931;-57
2023/05/16 04:33:56;;;;;;;;;;;;;;;11.36;76.05;97630.53;5083561;28;19961;-57
2023/05/16 04:36:28;;;;;;;;;;;;;;;11.31;76.21;97619.03;5070156;28;19951;-58
2023/05/16 04:38:57;;;;;;;;;;;;;;;11.35;76.26;97623.50;5081627;28;19942;-57
2023/05/16 04:41:24;;;;;;;;;;;;;;;11.38;76.44;97624.75;5074122;28;19943;-60
2023/05/16 04:43:52;;;;;;;;;;;;;;;11.37;76.39;97629.41;5119018;27;19931;-58
2023/05/16 04:46:20;;;;;;;;;;;;;;;11.31;76.72;97629.91;5081807;28;19954;-60
2023/05/16 04:48:48;;;;;;;;;;;;;;;11.28;76.68;97625.88;5099047;28;20382;-57
2023/05/16 04:51:16;;;;;;;;;;;;;;;11.30;76.74;97634.53;5095211;28;19930;-58
2023/05/16 04:53:45;;;;;;;;;;;;;;;11.26;76.71;97628.94;5091106;27;19942;-58
2023/05/16 04:56:13;;;;;;;;;;;;;;;11.27;76.78;97635.16;5091158;28;20483;-58
2023/05/16 04:58:41;;;;;;;;;;;;;;;11.33;76.43;97631.16;5102098;28;19931;-57
2023/05/16 05:01:09;;;;;;;;;;;;;;;11.30;76.72;97634.53;5084620;28;19931;-57
2023/05/16 05:03:37;;;;;;;;;;;;;;;11.45;76.29;97633.22;5092075;28;19938;-57
2023/05/16 05:06:05;;;;;;;;;;;;;;;11.47;76.12;97639.16;5084413;28;19984;-58
2023/05/16 05:08:33;;;;;;;;;;;;;;;11.58;75.62;97643.13;5098660;28;19925;-57
2023/05/16 05:11:02;;;;;;;;;;;;;;;11.57;75.41;97638.00;5089579;28;19946;-59
2023/05/16 05:13:30;;;;;;;;;;;;;;;11.53;75.54;97637.84;5088007;28;20005;-57
2023/05/16 05:15:58;;;;;;;;;;;;;;;11.54;75.82;97640.25;5086261;28;19942;-58
2023/05/16 05:18:26;;;;;;;;;;;;;;;11.63;75.59;97642.16;5086757;28;19928;-58
2023/05/16 05:20:54;;;;;;;;;;;;;;;11.60;75.32;97646.31;5092829;28;19931;-61
2023/05/16 05:23:22;;;;;;;;;;;;;;;11.60;75.23;97643.59;5078573;28;19955;-56
2023/05/16 05:25:49;;;;;;;;;;;;;;;11.64;75.23;97654.63;5091570;28;19935;-57
2023/05/16 05:28:19;;;;;;;;;;;;;;;11.66;75.13;97655.88;5094868;28;19951;-56
2023/05/16 05:30:47;;;;;;;;;;;;;;;11.80;74.52;97651.06;5101904;28;19930;-58
2023/05/16 05:33:16;;;;;;;;;;;;;;;11.77;74.41;97646.28;5084561;28;19942;-59
2023/05/16 05:35:44;;;;;;;;;;;;;;;11.76;74.37;97654.75;5077055;28;19950;-58
2023/05/16 05:38:12;;;;;;;;;;;;;;;11.77;74.15;97661.78;5099858;28;19950;-56
2023/05/16 05:40:40;;;;;;;;;;;;;;;11.78;74.16;97649.78;5092981;28;20272;-57
2023/05/16 05:43:07;;;;;;;;;;;;;;;11.79;74.07;97656.81;5092990;28;19969;-62
2023/05/16 05:45:37;;;;;;;;;;;;;;;11.90;73.79;97658.09;5079415;28;19958;-56
2023/05/16 05:48:05;;;;;;;;;;;;;;;11.99;73.07;97655.34;5081949;28;19946;-58
2023/05/16 05:50:33;;;;;;;;;;;;;;;12.02;73.12;97652.75;5093321;28;19939;-56
2023/05/16 05:53:01;;;;;;;;;;;;;;;12.14;72.76;97654.78;5092188;28;19950;-59
2023/05/16 05:55:28;;;;;;;;;;;;;;;12.06;72.40;97656.44;5117495;27;19938;-61
2023/05/16 05:57:56;;;;;;;;;;;;;;;12.13;72.68;97652.41;5084553;28;20399;-57
2023/05/16 06:00:24;;;;;;;;;;;;;;;12.21;72.47;97652.38;5089272;28;19938;-58
2023/05/16 06:02:54;;;;;;;;;;;;;;;12.22;72.54;97653.97;5076698;28;19920;-58
2023/05/16 06:05:22;;;;;;;;;;;;;;;12.32;72.25;97655.50;5084201;28;19957;-57
2023/05/16 06:07:50;;;;;;;;;;;;;;;12.31;72.23;97659.38;5081537;28;19942;-57
2023/05/16 06:10:18;;;;;;;;;;;;;;;12.31;72.29;97652.00;5120505;27;19950;-62
2023/05/16 06:12:46;;;;;;;;;;;;;;;12.40;71.94;97656.59;5083132;28;19939;-57
2023/05/16 06:15:14;;;;;;;;;;;;;;;12.38;72.30;97661.56;5082901;28;19931;-59
2023/05/16 06:17:42;;;;;;;;;;;;;;;12.45;72.20;97657.19;5080907;28;19946;-57
2023/05/16 06:20:12;;;;;;;;;;;;;;;12.51;71.62;97658.59;5088959;28;19934;-57
2023/05/16 06:22:40;;;;;;;;;;;;;;;12.62;71.34;97655.50;5082878;28;20350;-57
2023/05/16 06:25:08;;;;;;;;;;;;;;;12.70;70.36;97657.38;5075797;28;19942;-62
2023/05/16 06:27:35;;;;;;;;;;;;;;;12.74;70.29;97664.56;5082295;28;19920;-57
2023/05/16 06:30:03;;;;;;;;;;;;;;;12.79;70.40;97655.38;5085529;28;19921;-57
2023/05/16 06:32:32;;;;;;;;;;;;;;;12.85;70.04;97657.59;5093015;28;19954;-57
2023/05/16 06:35:00;;;;;;;;;;;;;;;12.89;68.83;97655.00;5093384;28;20534;-57
2023/05/16 06:37:29;;;;;;;;;;;;;;;12.94;68.39;97652.03;5079462;28;19951;-58
2023/05/16 06:39:58;;;;;;;;;;;;;;;12.98;68.43;97658.44;5079454;28;20410;-57
2023/05/16 06:42:25;;;;;;;;;;;;;;;13.11;67.86;97656.59;5074569;28;20280;-57
2023/05/16 06:44:54;;;;;;;;;;;;;;;13.13;67.67;97658.97;5094958;28;19931;-57
2023/05/16 06:47:23;;;;;;;;;;;;;;;13.28;66.82;97659.19;5092277;28;20395;-58
2023/05/16 06:49:50;;;;;;;;;;;;;;;13.43;66.70;97662.44;5098446;28;19938;-58
2023/05/16 06:52:18;;;;;;;;;;;;;;;13.63;65.78;97656.09;5071516;28;19935;-60
2023/05/16 06:54:48;;;;;;;;;;;;;;;13.78;65.07;97654.66;5090555;28;19935;-57
2023/05/16 06:57:16;;;;;;;;;;;;;;;13.92;65.06;97651.63;5074922;28;19951;-57
2023/05/16 06:59:44;;;;;;;;;;;;;;;14.11;63.90;97655.41;5092444;28;19970;-64
2023/05/16 07:02:12;;;;;;;;;;;;;;;14.21;63.31;97656.09;5093915;28;19985;-64
2023/05/16 07:04:39;;;;;;;;;;;;;;;14.41;62.27;97661.44;5101547;28;19938;-66
2023/05/16 07:07:08;;;;;;;;;;;;;;;14.51;61.61;97660.22;5089587;28;19935;-62
2023/05/16 07:09:36;;;;;;;;;;;;;;;14.71;60.92;97663.16;5098092;28;19984;-62
2023/05/16 07:12:05;;;;;;;;;;;;;;;14.86;60.18;97662.44;5099301;28;20017;-59
2023/05/16 07:14:37;;;;;;;;;;;;;;;14.90;59.13;97666.06;5096576;28;20294;-62
2023/05/16 07:17:05;;;;;;;;;;;;;;;14.87;59.44;97664.84;5093211;28;19938;-58
2023/05/16 07:19:34;;;;;;;;;;;;;;;14.91;58.88;97664.94;5098693;28;19930;-57
2023/05/16 07:22:02;;;;;;;;;;;;;;;14.82;58.69;97651.41;5094848;28;20044;-59
2023/05/16 07:24:31;;;;;;;;;;;;;;;14.84;59.08;97667.47;5100087;28;19937;-57
2023/05/16 07:26:59;;;;;;;;;;;;;;;14.84;58.25;97664.72;5086738;28;20391;-62
2023/05/16 07:29:29;;;;;;;;;;;;;;;14.81;58.96;97668.16;5084887;28;19927;-61
2023/05/16 07:31:57;;;;;;;;;;;;;;;14.89;58.80;97667.22;5089389;28;19928;-68
2023/05/16 07:34:25;;;;;;;;;;;;;;;14.98;58.68;97664.38;5100891;28;19934;-64
2023/05/16 07:36:53;;;;;;;;;;;;;;;15.14;57.98;97663.28;5079757;28;19983;-62
2023/05/16 07:39:21;;;;;;;;;;;;;;;15.26;57.20;97661.66;5095985;28;19920;-63
2023/05/16 07:41:49;;;;;;;;;;;;;;;15.41;56.35;97666.38;5084384;28;19982;-57
2023/05/16 07:44:17;;;;;;;;;;;;;;;15.42;56.50;97667.97;5081623;28;20426;-64
2023/05/16 07:46:46;;;;;;;;;;;;;;;15.64;56.56;97664.69;5082857;28;19949;-58
2023/05/16 07:49:16;;;;;;;;;;;;;;;15.83;55.57;97671.47;5085114;28;19931;-58
2023/05/16 07:51:44;;;;;;;;;;;;;;;15.83;55.54;97679.69;5073784;28;19930;-66
2023/05/16 07:54:12;;;;;;;;;;;;;;;15.70;56.01;97676.97;5088247;28;19931;-60
2023/05/16 07:56:40;;;;;;;;;;;;;;;15.56;56.83;97676.59;5082794;28;19935;-66
2023/05/16 07:59:08;;;;;;;;;;;;;;;15.57;57.19;97677.38;5081294;28;19947;-58
2023/05/16 08:01:37;;;;;;;;;;;;;;;15.43;56.60;97669.56;5086748;28;19942;-58
2023/05/16 08:04:06;;;;;;;;;;;;;;;15.37;57.30;97674.50;5081240;28;19921;-60
2023/05/16 08:06:34;;;;;;;;;;;;;;;15.57;56.71;97671.91;5099570;28;19930;-71
2023/05/16 08:09:02;;;;;;;;;;;;;;;15.81;55.98;97679.22;5086825;28;19993;-58
2023/05/16 08:11:31;;;;;;;;;;;;;;;15.83;55.70;97677.72;5066912;28;19937;-59
2023/05/16 08:13:58;;;;;;;;;;;;;;;15.92;55.90;97675.59;5091539;28;19942;-57
2023/05/16 08:16:26;;;;;;;;;;;;;;;16.03;55.82;97681.34;5082838;28;20299;-56
2023/05/16 08:18:54;;;;;;;;;;;;;;;15.96;54.55;97681.19;5083881;28;19947;-58
2023/05/16 08:21:23;;;;;;;;;;;;;;;15.79;55.20;97687.00;5090951;28;19928;-63
2023/05/16 08:23:51;;;;;;;;;;;;;;;15.71;55.30;97697.78;5087820;28;19937;-60
2023/05/16 08:26:20;;;;;;;;;;;;;;;15.66;54.30;97689.81;5096757;28;20087;-65
2023/05/16 08:28:48;;;;;;;;;;;;;;;15.56;53.75;97695.75;5086330;28;19930;-57
2023/05/16 08:31:16;;;;;;;;;;;;;;;15.55;53.54;97691.41;5101811;28;20015;-67
2023/05/16 08:33:44;;;;;;;;;;;;;;;15.62;53.05;97693.56;5099435;28;19949;-56
2023/05/16 08:36:12;;;;;;;;;;;;;;;15.64;52.64;97707.72;5088707;28;19935;-57
2023/05/16 08:38:41;;;;;;;;;;;;;;;15.57;51.55;97697.34;5091664;28;19947;-61
2023/05/16 08:41:09;;;;;;;;;;;;;;;15.58;50.25;97709.88;5098728;28;19937;-60
2023/05/16 08:43:37;;;;;;;;;;;;;;;15.66;51.04;97700.75;5084539;28;19938;-58
2023/05/16 08:46:06;;;;;;;;;;;;;;;15.85;50.80;97702.03;5103834;28;20384;-61
2023/05/16 08:48:34;;;;;;;;;;;;;;;16.12;50.20;97698.44;5096604;28;19947;-58
2023/05/16 08:51:02;;;;;;;;;;;;;;;16.40;49.27;97697.53;5086240;28;19949;-57
2023/05/16 08:53:31;;;;;;;;;;;;;;;16.45;48.42;97684.38;5096128;28;19949;-58
2023/05/16 08:56:01;;;;;;;;;;;;;;;16.41;48.88;97689.00;5093185;28;20067;-62
2023/05/16 08:58:29;;;;;;;;;;;;;;;16.48;48.86;97677.38;5090151;28;20268;-61
2023/05/16 09:00:57;;;;;;;;;;;;;;;16.45;49.70;97678.09;5114970;27;20195;-58
2023/05/16 09:03:27;;;;;;;;;;;;;;;16.47;48.57;97684.03;5098839;27;19935;-64
2023/05/16 09:05:56;;;;;;;;;;;;;;;16.49;48.99;97676.22;5085455;28;20017;-58
2023/05/16 09:08:25;;;;;;;;;;;;;;;16.60;49.39;97688.25;5094260;28;19938;-63
2023/05/16 09:10:52;;;;;;;;;;;;;;;16.79;49.00;97684.00;5104333;28;19937;-57
2023/05/16 09:13:22;;;;;;;;;;;;;;;16.97;47.92;97698.91;5101326;28;19930;-64
2023/05/16 09:16:05;;;;;;;;;;;;;;;17.11;48.05;97687.47;5091794;28;19931;-59
2023/05/16 09:18:36;;;;;;;;;;;;;;;17.03;48.66;97692.78;5085608;28;20449;-61
2023/05/16 09:21:04;;;;;;;;;;;;;;;17.14;50.26;97690.25;5090622;28;20303;-59
2023/05/16 09:23:32;;;;;;;;;;;;;;;17.13;51.64;97705.16;5104270;27;19950;-59
2023/05/16 09:26:04;;;;;;;;;;;;;;;17.10;51.92;97694.91;5091934;28;19934;-59
2023/05/16 09:28:33;;;;;;;;;;;;;;;16.56;53.09;97698.31;5083616;28;21065;-60
2023/05/16 09:31:03;;;;;;;;;;;;;;;16.48;54.27;97707.56;5082960;28;19978;-58
2023/05/16 09:33:31;;;;;;;;;;;;;;;16.57;55.15;97710.91;5096058;28;19938;-59
2023/05/16 09:35:59;;;;;;;;;;;;;;;16.93;54.51;97706.25;5072745;28;19991;-62
2023/05/16 09:38:28;;;;;;;;;;;;;;;17.19;53.66;97717.44;5084966;28;19965;-66
2023/05/16 09:40:56;;;;;;;;;;;;;;;17.15;54.13;97722.06;5098307;28;20018;-65
2023/05/16 09:43:25;;;;;;;;;;;;;;;17.12;54.15;97725.53;5097616;28;19934;-62
2023/05/16 09:45:55;;;;;;;;;;;;;;;16.91;54.76;97719.56;5083176;28;19934;-65
2023/05/16 09:48:24;;;;;;;;;;;;;;;16.67;55.34;97731.50;5086036;28;20262;-65
2023/05/16 09:50:52;;;;;;;;;;;;;;;16.62;55.45;97729.84;5097172;28;19930;-58
2023/05/16 09:53:27;;;;;;;;;;;;;;;16.50;55.62;97724.44;5091315;27;19979;-60
2023/05/16 09:56:02;;;;;;;;;;;;;;;16.50;55.96;97732.66;5073047;28;19983;-59
2023/05/16 09:58:32;;;;;;;;;;;;;;;16.52;55.78;97730.38;5092232;28;19949;-58
2023/05/16 10:01:02;;;;;;;;;;;;;;;16.44;55.14;97720.38;5094817;28;19920;-63
2023/05/16 10:03:30;;;;;;;;;;;;;;;16.47;55.02;97728.69;5085968;28;19931;-62
2023/05/16 10:05:58;;;;;;;;;;;;;;;16.45;53.70;97725.50;5092821;28;19938;-61
2023/05/16 10:08:26;;;;;;;;;;;;;;;16.58;53.57;97722.69;5086909;28;20004;-61
2023/05/16 10:10:55;;;;;;;;;;;;;;;16.60;52.81;97717.63;5092668;28;19930;-65
2023/05/16 10:13:24;;;;;;;;;;;;;;;16.62;52.35;97718.06;5071887;28;20023;-65
2023/05/16 10:15:52;;;;;;;;;;;;;;;16.53;52.15;97715.50;5085587;28;19950;-59
2023/05/16 10:18:22;;;;;;;;;;;;;;;16.55;52.59;97715.16;5079472;28;19931;-61
2023/05/16 10:20:52;;;;;;;;;;;;;;;16.53;52.60;97710.03;5082657;28;20362;-59
2023/05/16 10:23:21;;;;;;;;;;;;;;;16.47;52.48;97719.69;5079346;28;19963;-59
2023/05/16 10:25:49;;;;;;;;;;;;;;;16.45;52.51;97711.78;5079037;28;20512;-59
2023/05/16 10:28:17;;;;;;;;;;;;;;;16.45;52.37;97700.03;5101066;28;19938;-59
2023/05/16 10:30:47;;;;;;;;;;;;;;;16.39;53.01;97704.97;5084191;28;19958;-62
2023/05/16 10:33:15;;;;;;;;;;;;;;;16.45;52.93;97686.31;5094306;28;19994;-65
2023/05/16 10:35:46;;;;;;;;;;;;;;;16.42;52.31;97703.50;5087951;28;19935;-60
2023/05/16 10:38:15;;;;;;;;;;;;;;;16.44;52.54;97684.72;5089481;28;19959;-63
2023/05/16 10:40:43;;;;;;;;;;;;;;;16.52;51.79;97702.97;5136494;27;19955;-60
2023/05/16 10:43:11;;;;;;;;;;;;;;;16.46;51.55;97704.38;5090328;27;19935;-58
2023/05/16 10:45:40;;;;;;;;;;;;;;;16.53;52.15;97704.53;5095538;28;19942;-60
2023/05/16 10:48:10;;;;;;;;;;;;;;;16.61;50.21;97709.03;5079571;28;20006;-58
2023/05/16 10:50:38;;;;;;;;;;;;;;;16.72;51.19;97712.06;5091025;28;19934;-62
2023/05/16 10:53:18;;;;;;;;;;;;;;;16.81;51.20;97706.38;5089120;28;19938;-59
2023/05/16 10:55:49;;;;;;;;;;;;;;;16.95;49.60;97720.44;5089742;28;20006;-59
2023/05/16 10:58:25;;;;;;;;;;;;;;;16.92;49.58;97716.44;5099852;28;20383;-59
2023/05/16 11:01:14;;;;;;;;;;;;;;;17.02;48.60;97720.59;5086124;28;19951;-69
2023/05/16 11:03:55;;;;;;;;;;;;;;;16.92;48.16;97715.66;5094512;28;19937;-61
2023/05/16 11:06:28;;;;;;;;;;;;;;;16.92;48.51;97716.44;5095596;28;19954;-69
2023/05/16 11:09:08;;;;;;;;;;;;;;;17.08;48.84;97718.38;5128369;27;19938;-63
2023/05/16 11:11:40;;;;;;;;;;;;;;;17.15;47.71;97718.50;5093455;28;20395;-60
2023/05/16 11:14:08;;;;;;;;;;;;;;;17.11;48.10;97723.94;5092470;28;19935;-62
2023/05/16 11:16:36;;;;;;;;;;;;;;;16.95;48.14;97721.22;5092346;28;20431;-58
2023/05/16 11:19:05;;;;;;;;;;;;;;;16.84;49.02;97713.91;5098291;28;19935;-60
2023/05/16 11:21:51;;;;;;;;;;;;;;;16.91;49.08;97716.81;5082238;28;19951;-58
2023/05/16 11:24:30;;;;;;;;;;;;;;;16.85;48.78;97702.56;5085049;28;19942;-65
2023/05/16 11:26:59;;;;;;;;;;;;;;;16.79;49.41;97716.94;5082116;28;20354;-59
2023/05/16 11:29:27;;;;;;;;;;;;;;;16.67;50.11;97715.03;5109911;28;19941;-66
2023/05/16 11:31:57;;;;;;;;;;;;;;;16.69;50.32;97708.06;5086205;28;19923;-62
2023/05/16 11:34:26;;;;;;;;;;;;;;;16.71;50.72;97716.75;5086838;28;19988;-65
2023/05/16 11:36:55;;;;;;;;;;;;;;;16.91;49.73;97714.06;5094099;28;20017;-62
2023/05/16 11:39:25;;;;;;;;;;;;;;;17.08;49.60;97713.66;5105671;28;19934;-66
2023/05/16 11:41:54;;;;;;;;;;;;;;;17.26;48.80;97720.34;5094201;28;19931;-59
2023/05/16 11:44:23;;;;;;;;;;;;;;;17.26;47.88;97714.06;5090645;28;20463;-60
2023/05/16 11:46:50;;;;;;;;;;;;;;;17.19;47.02;97722.94;5081778;28;19937;-61
2023/05/16 11:49:18;;;;;;;;;;;;;;;17.06;47.39;97713.25;5082998;28;19934;-58
2023/05/16 11:51:46;;;;;;;;;;;;;;;17.11;47.76;97707.47;5108334;27;19993;-61
2023/05/16 11:54:14;;;;;;;;;;;;;;;17.12;46.59;97717.28;5088289;28;19934;-59
2023/05/16 11:56:42;;;;;;;;;;;;;;;17.03;47.14;97713.94;5103076;28;19988;-64
2023/05/16 11:59:11;;;;;;;;;;;;;;;17.14;47.15;97706.72;5093612;28;19942;-59
2023/05/16 12:01:39;;;;;;;;;;;;;;;17.32;46.31;97706.34;5087821;28;19947;-62
2023/05/16 12:04:08;;;;;;;;;;;;;;;17.29;46.16;97705.88;5080496;28;19964;-59
2023/05/16 12:06:36;;;;;;;;;;;;;;;17.34;46.42;97712.25;5097654;28;19931;-62
2023/05/16 12:09:09;;;;;;;;;;;;;;;17.44;46.25;97712.47;5096776;28;19937;-63
2023/05/16 12:12:02;;;;;;;;;;;;;;;17.41;46.33;97717.88;5090303;28;20012;-61
2023/05/16 12:14:32;;;;;;;;;;;;;;;17.24;45.74;97717.16;5102253;28;19934;-61
2023/05/16 12:16:59;;;;;;;;;;;;;;;17.21;46.21;97715.16;5087834;28;20001;-59
2023/05/16 12:19:28;;;;;;;;;;;;;;;17.20;46.81;97712.75;5100478;28;20029;-71
2023/05/16 12:21:56;;;;;;;;;;;;;;;17.10;47.28;97738.81;5087922;28;19951;-65
2023/05/16 12:24:29;;;;;;;;;;;;;;;16.89;47.02;97725.41;5089906;28;19934;-65
2023/05/16 12:26:57;;;;;;;;;;;;;;;16.82;47.79;97735.41;5089953;28;20202;-63
2023/05/16 12:29:25;;;;;;;;;;;;;;;16.72;47.78;97728.50;5088425;28;19935;-63
2023/05/16 12:31:55;;;;;;;;;;;;;;;16.82;48.36;97727.19;5094719;28;19930;-58
2023/05/16 12:34:23;;;;;;;;;;;;;;;16.98;48.03;97730.69;5092482;28;19931;-62
2023/05/16 12:36:52;;;;;;;;;;;;;;;17.15;48.06;97719.34;5088061;28;19947;-59
2023/05/16 12:39:21;;;;;;;;;;;;;;;17.23;47.12;97726.56;5096708;28;19943;-62
2023/05/16 12:41:50;;;;;;;;;;;;;;;17.25;47.54;97735.22;5091675;28;19953;-58
2023/05/16 12:44:19;;;;;;;;;;;;;;;17.33;47.74;97729.88;5098688;28;19935;-65
2023/05/16 12:46:48;;;;;;;;;;;;;;;17.04;47.88;97726.50;5094541;28;19945;-59
2023/05/16 12:49:42;;;;;;;;;;;;;;;16.96;48.75;97724.78;5080902;28;19973;-68
2023/05/16 12:56:32;;;;;;;;;;;;;;;17.32;47.50;97722.81;4993110;28;19936;-65
2023/05/16 12:59:00;;;;;;;;;;;;;;;17.33;48.10;97732.63;5008441;28;19936;-58
2023/05/16 13:01:28;;;;;;;;;;;;;;;17.27;47.46;97740.38;5004314;28;20309;-59